sensor_id;sensor_type;location;lat;lon;timestamp;pressure;altitude;pressure_sealevel;temperature;humidity
36354;BME280;22383;51.114;13.666;2022-08-19T00:01:43;69372.13;;;19.73;100.00
36354;BME280;22383;51.114;13.666;2022-08-19T00:04:20;69372.88;;;19.76;100.00
36354;BME280;22383;51.114;13.666;2022-08-19T00:06:47;69379.56;;;19.79;100.00
36354;BME280;22383;51.114;13.666;2022-08-19T00:09:15;69379.38;;;19.77;100.00
36354;BME280;22383;51.114;13.666;2022-08-19T00:11:43;69372.88;;;19.76;100.00
36354;BME280;22383;51.114;13.666;2022-08-19T00:14:11;69369.44;;;19.73;100.00
36354;BME280;22383;51.114;13.666;2022-08-19T00:16:39;69370.22;;;19.69;100.00
36354;BME280;22383;51.114;13.666;2022-08-19T00:19:06;69366.00;;;19.70;100.00
36354;BME280;22383;51.114;13.666;2022-08-19T00:21:33;69333.28;;;19.62;100.00
36354;BME280;22383;51.114;13.666;2022-08-19T00:24:06;69353.63;;;19.61;100.00
36354;BME280;22383;51.114;13.666;2022-08-19T00:26:33;69358.00;;;19.62;100.00
36354;BME280;22383;51.114;13.666;2022-08-19T00:29:00;69359.56;;;19.61;100.00
36354;BME280;22383;51.114;13.666;2022-08-19T00:31:27;69352.16;;;19.55;100.00
36354;BME280;22383;51.114;13.666;2022-08-19T00:33:54;69348.88;;;19.54;100.00
36354;BME280;22383;51.114;13.666;2022-08-19T00:36:21;69340.72;;;19.44;100.00
36354;BME280;22383;51.114;13.666;2022-08-19T00:38:48;69333.66;;;19.43;100.00
36354;BME280;22383;51.114;13.666;2022-08-19T00:41:19;69332.34;;;19.39;100.00
36354;BME280;22383;51.114;13.666;2022-08-19T00:46:46;69330.06;;;19.37;100.00
36354;BME280;22383;51.114;13.666;2022-08-19T00:52:03;69338.63;;;19.45;100.00
36354;BME280;22383;51.114;13.666;2022-08-19T00:54:31;69337.06;;;19.46;100.00
36354;BME280;22383;51.114;13.666;2022-08-19T00:56:59;69330.63;;;19.38;100.00
36354;BME280;22383;51.114;13.666;2022-08-19T00:59:28;69329.47;;;19.37;100.00
36354;BME280;22383;51.114;13.666;2022-08-19T01:02:15;69328.56;;;19.31;100.00
36354;BME280;22383;51.114;13.666;2022-08-19T01:04:43;69320.94;;;19.29;100.00
36354;BME280;22383;51.114;13.666;2022-08-19T01:07:10;69318.25;;;19.29;100.00
36354;BME280;22383;51.114;13.666;2022-08-19T01:09:43;69315.22;;;19.24;100.00
36354;BME280;22383;51.114;13.666;2022-08-19T01:12:10;69287.66;;;19.21;100.00
36354;BME280;22383;51.114;13.666;2022-08-19T01:14:38;69318.66;;;19.27;100.00
36354;BME280;22383;51.114;13.666;2022-08-19T01:17:06;69320.94;;;19.29;100.00
36354;BME280;22383;51.114;13.666;2022-08-19T01:19:35;69322.78;;;19.33;100.00
36354;BME280;22383;51.114;13.666;2022-08-19T01:22:12;69326.63;;;19.34;100.00
36354;BME280;22383;51.114;13.666;2022-08-19T01:24:42;69337.31;;;19.41;100.00
36354;BME280;22383;51.114;13.666;2022-08-19T01:27:15;69331.44;;;19.34;100.00
36354;BME280;22383;51.114;13.666;2022-08-19T01:29:43;69329.31;;;19.34;100.00
36354;BME280;22383;51.114;13.666;2022-08-19T01:32:12;69323.78;;;19.32;100.00
36354;BME280;22383;51.114;13.666;2022-08-19T01:34:59;69314.25;;;19.25;100.00
36354;BME280;22383;51.114;13.666;2022-08-19T01:37:28;69319.97;;;19.31;100.00
36354;BME280;22383;51.114;13.666;2022-08-19T01:39:57;69324.75;;;19.30;100.00
36354;BME280;22383;51.114;13.666;2022-08-19T01:42:24;69325.31;;;19.31;100.00
36354;BME280;22383;51.114;13.666;2022-08-19T01:44:56;69317.50;;;19.26;100.00
36354;BME280;22383;51.114;13.666;2022-08-19T01:47:23;69316.75;;;19.23;100.00
36354;BME280;22383;51.114;13.666;2022-08-19T01:49:51;69312.53;;;19.24;100.00
36354;BME280;22383;51.114;13.666;2022-08-19T01:52:18;69320.59;;;19.24;100.00
36354;BME280;22383;51.114;13.666;2022-08-19T01:54:44;69316.19;;;19.22;100.00
36354;BME280;22383;51.114;13.666;2022-08-19T01:57:12;69308.53;;;19.20;100.00
36354;BME280;22383;51.114;13.666;2022-08-19T01:59:41;69311.56;;;19.25;100.00
36354;BME280;22383;51.114;13.666;2022-08-19T02:02:08;69319.06;;;19.25;100.00
36354;BME280;22383;51.114;13.666;2022-08-19T02:04:36;69314.25;;;19.25;100.00
36354;BME280;22383;51.114;13.666;2022-08-19T02:07:05;69309.66;;;19.21;100.00
36354;BME280;22383;51.114;13.666;2022-08-19T02:09:33;69315.78;;;19.24;100.00
36354;BME280;22383;51.114;13.666;2022-08-19T02:12:00;69318.06;;;19.26;100.00
36354;BME280;22383;51.114;13.666;2022-08-19T02:14:27;69316.94;;;19.25;100.00
36354;BME280;22383;51.114;13.666;2022-08-19T02:16:54;69313.69;;;19.25;100.00
36354;BME280;22383;51.114;13.666;2022-08-19T02:19:21;69321.50;;;19.30;100.00
36354;BME280;22383;51.114;13.666;2022-08-19T02:21:49;69289.91;;;19.23;100.00
36354;BME280;22383;51.114;13.666;2022-08-19T02:24:16;69315.78;;;19.24;100.00
36354;BME280;22383;51.114;13.666;2022-08-19T02:26:43;69310.81;;;19.22;100.00
36354;BME280;22383;51.114;13.666;2022-08-19T02:29:10;69313.34;;;19.20;100.00
36354;BME280;22383;51.114;13.666;2022-08-19T02:31:37;69318.47;;;19.24;100.00
36354;BME280;22383;51.114;13.666;2022-08-19T02:34:04;69320.94;;;19.29;100.00
36354;BME280;22383;51.114;13.666;2022-08-19T02:36:31;69316.94;;;19.25;100.00
36354;BME280;22383;51.114;13.666;2022-08-19T02:38:58;69321.50;;;19.30;100.00
36354;BME280;22383;51.114;13.666;2022-08-19T02:41:27;69323.78;;;19.32;100.00
36354;BME280;22383;51.114;13.666;2022-08-19T02:43:54;69321.50;;;19.30;100.00
36354;BME280;22383;51.114;13.666;2022-08-19T02:46:44;69324.91;;;19.33;100.00
36354;BME280;22383;51.114;13.666;2022-08-19T02:49:11;69316.38;;;19.25;100.00
36354;BME280;22383;51.114;13.666;2022-08-19T02:51:39;69317.84;;;19.31;100.00
36354;BME280;22383;51.114;13.666;2022-08-19T02:54:07;69325.31;;;19.31;100.00
36354;BME280;22383;51.114;13.666;2022-08-19T02:56:35;69327.41;;;19.30;100.00
36354;BME280;22383;51.114;13.666;2022-08-19T02:59:03;69325.47;;;19.33;100.00
36354;BME280;22383;51.114;13.666;2022-08-19T03:01:36;69316.94;;;19.25;100.00
36354;BME280;22383;51.114;13.666;2022-08-19T03:04:04;69323.19;;;19.31;100.00
36354;BME280;22383;51.114;13.666;2022-08-19T03:06:31;69325.88;;;19.31;100.00
36354;BME280;22383;51.114;13.666;2022-08-19T03:08:58;69328.75;;;19.34;100.00
36354;BME280;22383;51.114;13.666;2022-08-19T03:11:27;69328.91;;;19.36;100.00
36354;BME280;22383;51.114;13.666;2022-08-19T03:13:54;69331.38;;;19.41;100.00
36354;BME280;22383;51.114;13.666;2022-08-19T03:16:22;69326.63;;;19.34;100.00
36354;BME280;22383;51.114;13.666;2022-08-19T03:18:50;69332.75;;;19.37;100.00
36354;BME280;22383;51.114;13.666;2022-08-19T03:21:19;69327.38;;;19.37;100.00
36354;BME280;22383;51.114;13.666;2022-08-19T03:23:46;69322.06;;;19.30;100.00
36354;BME280;22383;51.114;13.666;2022-08-19T03:26:13;69316.38;;;19.25;100.00
36354;BME280;22383;51.114;13.666;2022-08-19T03:28:44;69316.53;;;19.27;100.00
36354;BME280;22383;51.114;13.666;2022-08-19T03:31:25;69320.34;;;19.29;100.00
36354;BME280;22383;51.114;13.666;2022-08-19T03:34:12;69320.75;;;19.26;100.00
36354;BME280;22383;51.114;13.666;2022-08-19T03:36:40;69321.91;;;19.27;100.00
36354;BME280;22383;51.114;13.666;2022-08-19T03:39:07;69295.06;;;19.27;100.00
36354;BME280;22383;51.114;13.666;2022-08-19T03:41:37;69323.78;;;19.32;100.00
36354;BME280;22383;51.114;13.666;2022-08-19T03:44:15;69320.34;;;19.29;100.00
36354;BME280;22383;51.114;13.666;2022-08-19T03:46:44;69326.44;;;19.32;100.00
36354;BME280;22383;51.114;13.666;2022-08-19T03:49:12;69318.97;;;19.32;100.00
36354;BME280;22383;51.114;13.666;2022-08-19T03:51:41;69326.97;;;19.39;100.00
36354;BME280;22383;51.114;13.666;2022-08-19T03:54:09;69326.22;;;19.36;100.00
36354;BME280;22383;51.114;13.666;2022-08-19T03:56:37;69325.66;;;19.36;100.00
36354;BME280;22383;51.114;13.666;2022-08-19T03:59:05;69331.59;;;19.36;100.00
36354;BME280;22383;51.114;13.666;2022-08-19T04:01:34;69300.78;;;19.33;100.00
36354;BME280;22383;51.114;13.666;2022-08-19T04:04:02;69330.06;;;19.37;100.00
36354;BME280;22383;51.114;13.666;2022-08-19T04:06:31;69338.44;;;19.42;100.00
36354;BME280;22383;51.114;13.666;2022-08-19T04:08:59;69330.63;;;19.38;100.00
36354;BME280;22383;51.114;13.666;2022-08-19T04:11:29;69327.59;;;19.33;100.00
36354;BME280;22383;51.114;13.666;2022-08-19T04:14:14;69335.44;;;19.37;100.00
36354;BME280;22383;51.114;13.666;2022-08-19T04:16:41;69336.75;;;19.41;100.00
36354;BME280;22383;51.114;13.666;2022-08-19T04:19:09;69330.06;;;19.37;100.00
36354;BME280;22383;51.114;13.666;2022-08-19T04:21:36;69333.66;;;19.43;100.00
36354;BME280;22383;51.114;13.666;2022-08-19T04:24:03;69335.59;;;19.40;100.00
36354;BME280;22383;51.114;13.666;2022-08-19T04:26:32;69338.22;;;19.47;100.00
36354;BME280;22383;51.114;13.666;2022-08-19T04:29:01;69336.91;;;19.43;100.00
36354;BME280;22383;51.114;13.666;2022-08-19T04:31:29;69331.75;;;19.39;100.00
36354;BME280;22383;51.114;13.666;2022-08-19T04:33:58;69319.38;;;19.30;100.00
36354;BME280;22383;51.114;13.666;2022-08-19T04:36:27;69320.53;;;19.31;100.00
36354;BME280;22383;51.114;13.666;2022-08-19T04:38:55;69319.22;;;19.27;100.00
36354;BME280;22383;51.114;13.666;2022-08-19T04:41:23;69327.38;;;19.37;100.00
36354;BME280;22383;51.114;13.666;2022-08-19T04:44:08;69321.50;;;19.30;100.00
36354;BME280;22383;51.114;13.666;2022-08-19T04:46:36;69333.31;;;19.38;100.00
36354;BME280;22383;51.114;13.666;2022-08-19T04:49:07;69323.59;;;19.29;100.00
36354;BME280;22383;51.114;13.666;2022-08-19T04:51:40;69324.75;;;19.30;100.00
36354;BME280;22383;51.114;13.666;2022-08-19T04:54:07;69317.69;;;19.29;100.00
36354;BME280;22383;51.114;13.666;2022-08-19T04:56:34;69328.34;;;19.36;100.00
36354;BME280;22383;51.114;13.666;2022-08-19T04:59:01;69324.34;;;19.32;100.00
36354;BME280;22383;51.114;13.666;2022-08-19T05:01:31;69322.22;;;19.33;100.00
36354;BME280;22383;51.114;13.666;2022-08-19T05:04:00;69322.06;;;19.30;100.00
36354;BME280;22383;51.114;13.666;2022-08-19T05:06:31;69319.78;;;19.28;100.00
36354;BME280;22383;51.114;13.666;2022-08-19T05:09:03;69292.22;;;19.25;100.00
36354;BME280;22383;51.114;13.666;2022-08-19T05:11:32;69313.69;;;19.25;100.00
36354;BME280;22383;51.114;13.666;2022-08-19T05:14:00;69310.25;;;19.22;100.00
36354;BME280;22383;51.114;13.666;2022-08-19T05:16:27;69279.09;;;19.13;100.00
36354;BME280;22383;51.114;13.666;2022-08-19T05:18:55;69295.41;;;19.08;100.00
36354;BME280;22383;51.114;13.666;2022-08-19T05:21:41;69298.84;;;19.12;100.00
36354;BME280;22383;51.114;13.666;2022-08-19T05:24:28;69291.25;;;19.02;100.00
36354;BME280;22383;51.114;13.666;2022-08-19T05:26:56;69285.56;;;18.97;100.00
36354;BME280;22383;51.114;13.666;2022-08-19T05:29:25;69280.41;;;18.93;100.00
36354;BME280;22383;51.114;13.666;2022-08-19T05:31:59;69282.13;;;18.94;100.00
36354;BME280;22383;51.114;13.666;2022-08-19T05:34:26;69285.56;;;18.97;100.00
36354;BME280;22383;51.114;13.666;2022-08-19T05:36:55;69286.13;;;18.98;100.00
36354;BME280;22383;51.114;13.666;2022-08-19T05:39:24;69281.72;;;18.96;100.00
36354;BME280;22383;51.114;13.666;2022-08-19T05:41:54;69286.88;;;19.01;100.00
36354;BME280;22383;51.114;13.666;2022-08-19T05:44:31;69286.88;;;19.01;100.00
36354;BME280;22383;51.114;13.666;2022-08-19T05:46:58;69291.25;;;19.02;100.00
36354;BME280;22383;51.114;13.666;2022-08-19T05:49:26;69295.97;;;19.09;100.00
36354;BME280;22383;51.114;13.666;2022-08-19T05:51:54;69295.41;;;19.08;100.00
36354;BME280;22383;51.114;13.666;2022-08-19T05:54:22;69291.25;;;19.02;100.00
36354;BME280;22383;51.114;13.666;2022-08-19T05:56:50;69295.06;;;19.03;100.00
36354;BME280;22383;51.114;13.666;2022-08-19T05:59:18;69300.22;;;19.08;100.00
36354;BME280;22383;51.114;13.666;2022-08-19T06:01:51;69300.97;;;19.11;100.00
36354;BME280;22383;51.114;13.666;2022-08-19T06:04:18;69301.53;;;19.12;100.00
36354;BME280;22383;51.114;13.666;2022-08-19T06:06:46;69295.97;;;19.09;100.00
36354;BME280;22383;51.114;13.666;2022-08-19T06:09:14;69288.00;;;19.02;100.00
36354;BME280;22383;51.114;13.666;2022-08-19T06:11:45;69288.97;;;19.00;100.00
36354;BME280;22383;51.114;13.666;2022-08-19T06:14:14;69296.56;;;19.10;100.00
36354;BME280;22383;51.114;13.666;2022-08-19T06:16:42;69290.84;;;19.04;100.00
36354;BME280;22383;51.114;13.666;2022-08-19T06:19:11;69307.06;;;19.14;100.00
36354;BME280;22383;51.114;13.666;2022-08-19T06:21:39;69274.53;;;19.09;100.00
36354;BME280;22383;51.114;13.666;2022-08-19T06:24:08;69300.38;;;19.11;100.00
36354;BME280;22383;51.114;13.666;2022-08-19T06:26:36;69298.09;;;19.08;100.00
36354;BME280;22383;51.114;13.666;2022-08-19T06:29:04;69296.38;;;19.07;100.00
36354;BME280;22383;51.114;13.666;2022-08-19T06:31:33;69302.09;;;19.12;100.00
36354;BME280;22383;51.114;13.666;2022-08-19T06:34:01;69276.25;;;19.11;100.00
36354;BME280;22383;51.114;13.666;2022-08-19T06:36:34;69307.22;;;19.17;100.00
36354;BME280;22383;51.114;13.666;2022-08-19T06:39:05;69310.06;;;19.19;100.00
36354;BME280;22383;51.114;13.666;2022-08-19T06:41:37;69281.38;;;19.15;100.00
36354;BME280;22383;51.114;13.666;2022-08-19T06:44:16;69313.69;;;19.25;100.00
36354;BME280;22383;51.114;13.666;2022-08-19T06:46:45;69319.06;;;19.25;100.00
36354;BME280;22383;51.114;13.666;2022-08-19T06:49:21;69313.34;;;19.20;100.00
36354;BME280;22383;51.114;13.666;2022-08-19T06:51:48;69300.38;;;19.11;100.00
36354;BME280;22383;51.114;13.666;2022-08-19T06:54:17;69280.81;;;19.15;100.00
36354;BME280;22383;51.114;13.666;2022-08-19T06:56:46;69307.63;;;19.15;100.00
36354;BME280;22383;51.114;13.666;2022-08-19T06:59:17;69294.84;;;19.08;100.00
36354;BME280;22383;51.114;13.666;2022-08-19T07:01:49;69283.44;;;18.98;100.00
36354;BME280;22383;51.114;13.666;2022-08-19T07:04:17;69285.56;;;18.97;100.00
36354;BME280;22383;51.114;13.666;2022-08-19T07:06:46;69284.41;;;18.96;100.00
36354;BME280;22383;51.114;13.666;2022-08-19T07:09:21;69276.75;;;18.94;100.00
36354;BME280;22383;51.114;13.666;2022-08-19T07:11:49;69282.88;;;18.97;100.00
36354;BME280;22383;51.114;13.666;2022-08-19T07:14:18;69280.97;;;18.93;100.00
36354;BME280;22383;51.114;13.666;2022-08-19T07:16:46;69273.75;;;18.89;100.00
36354;BME280;22383;51.114;13.666;2022-08-19T07:19:14;69262.50;;;18.81;100.00
36354;BME280;22383;51.114;13.666;2022-08-19T07:21:45;69256.03;;;18.73;100.00
36354;BME280;22383;51.114;13.666;2022-08-19T07:24:12;69265.00;;;18.79;100.00
36354;BME280;22383;51.114;13.666;2022-08-19T07:26:41;69263.28;;;18.77;100.00
36354;BME280;22383;51.114;13.666;2022-08-19T07:29:09;69251.09;;;18.71;100.00
36354;BME280;22383;51.114;13.666;2022-08-19T07:31:36;69264.03;;;18.80;100.00
36354;BME280;22383;51.114;13.666;2022-08-19T07:34:04;69258.16;;;18.73;100.00
36354;BME280;22383;51.114;13.666;2022-08-19T07:36:35;69251.47;;;18.69;100.00
36354;BME280;22383;51.114;13.666;2022-08-19T07:39:04;69253.19;;;18.70;100.00
36354;BME280;22383;51.114;13.666;2022-08-19T07:41:32;69258.16;;;18.73;100.00
36354;BME280;22383;51.114;13.666;2022-08-19T07:43:59;69245.03;;;18.61;100.00
36354;BME280;22383;51.114;13.666;2022-08-19T07:46:31;69251.66;;;18.71;100.00
36354;BME280;22383;51.114;13.666;2022-08-19T07:48:58;69242.16;;;18.58;100.00
36354;BME280;22383;51.114;13.666;2022-08-19T07:51:26;69243.88;;;18.60;100.00
36354;BME280;22383;51.114;13.666;2022-08-19T07:54:03;69254.72;;;18.69;100.00
36354;BME280;22383;51.114;13.666;2022-08-19T07:56:30;69250.34;;;18.68;100.00
36354;BME280;22383;51.114;13.666;2022-08-19T07:58:57;69249.03;;;18.64;100.00
36354;BME280;22383;51.114;13.666;2022-08-19T08:01:25;69255.84;;;18.70;100.00
36354;BME280;22383;51.114;13.666;2022-08-19T08:03:53;69251.88;;;18.67;100.00
36354;BME280;22383;51.114;13.666;2022-08-19T08:06:39;69249.59;;;18.65;100.00
36354;BME280;22383;51.114;13.666;2022-08-19T08:09:27;69246.19;;;18.62;100.00
36354;BME280;22383;51.114;13.666;2022-08-19T08:12:00;69246.19;;;18.62;100.00
36354;BME280;22383;51.114;13.666;2022-08-19T08:14:45;69242.91;;;18.61;100.00
36354;BME280;22383;51.114;13.666;2022-08-19T08:17:15;69245.19;;;18.63;100.00
36354;BME280;22383;51.114;13.666;2022-08-19T08:19:57;69251.88;;;18.67;100.00
36354;BME280;22383;51.114;13.666;2022-08-19T08:22:24;69254.16;;;18.69;100.00
36354;BME280;22383;51.114;13.666;2022-08-19T08:25:11;69261.56;;;18.76;100.00
36354;BME280;22383;51.114;13.666;2022-08-19T08:27:41;69237.44;;;18.76;100.00
36354;BME280;22383;51.114;13.666;2022-08-19T08:30:13;69273.00;;;18.86;100.00
36354;BME280;22383;51.114;13.666;2022-08-19T08:32:41;69268.03;;;18.84;100.00
36354;BME280;22383;51.114;13.666;2022-08-19T08:35:10;69261.44;;;18.97;100.00
36354;BME280;22383;51.114;13.666;2022-08-19T08:37:37;69269.00;;;18.82;100.00
36354;BME280;22383;51.114;13.666;2022-08-19T08:40:05;69261.19;;;18.78;100.00
36354;BME280;22383;51.114;13.666;2022-08-19T08:42:39;69269.19;;;18.85;100.00
36354;BME280;22383;51.114;13.666;2022-08-19T08:45:12;69245.47;;;18.83;100.00
36354;BME280;22383;51.114;13.666;2022-08-19T08:47:43;69268.44;;;18.82;100.00
36354;BME280;22383;51.114;13.666;2022-08-19T08:50:27;69290.50;;;18.99;100.00
36354;BME280;22383;51.114;13.666;2022-08-19T08:52:56;69278.69;;;18.91;100.00
36354;BME280;22383;51.114;13.666;2022-08-19T08:55:25;69279.44;;;18.94;100.00
36354;BME280;22383;51.114;13.666;2022-08-19T08:58:04;69299.06;;;19.07;100.00
36354;BME280;22383;51.114;13.666;2022-08-19T09:00:33;69296.56;;;19.10;100.00
36354;BME280;22383;51.114;13.666;2022-08-19T09:03:01;69308.69;;;19.23;100.00
36354;BME280;22383;51.114;13.666;2022-08-19T09:05:34;69313.09;;;19.24;100.00
36354;BME280;22383;51.114;13.666;2022-08-19T09:08:27;69311.38;;;19.23;100.00
36354;BME280;22383;51.114;13.666;2022-08-19T09:10:58;69324.16;;;19.30;100.00
36354;BME280;22383;51.114;13.666;2022-08-19T09:16:04;69315.78;;;19.24;100.00
36354;BME280;22383;51.114;13.666;2022-08-19T09:18:49;69317.69;;;19.29;100.00
36354;BME280;22383;51.114;13.666;2022-08-19T09:21:21;69323.94;;;19.34;100.00
36354;BME280;22383;51.114;13.666;2022-08-19T09:23:56;69299.63;;;19.32;100.00
36354;BME280;22383;51.114;13.666;2022-08-19T09:26:26;69328.09;;;19.40;100.00
36354;BME280;22383;51.114;13.666;2022-08-19T09:29:13;69314.47;;;19.45;100.00
36354;BME280;22383;51.114;13.666;2022-08-19T09:31:40;69332.16;;;19.61;100.00
36354;BME280;22383;51.114;13.666;2022-08-19T09:34:07;69364.13;;;19.65;100.00
36354;BME280;22383;51.114;13.666;2022-08-19T09:36:48;69366.19;;;19.72;100.00
36354;BME280;22383;51.114;13.666;2022-08-19T09:39:20;69353.84;;;19.80;100.00
36354;BME280;22383;51.114;13.666;2022-08-19T09:41:47;69382.19;;;19.87;100.00
36354;BME280;22383;51.114;13.666;2022-08-19T09:44:17;69382.75;;;19.87;100.00
36354;BME280;22383;51.114;13.666;2022-08-19T09:46:45;69348.72;;;19.76;100.00
36354;BME280;22383;51.114;13.666;2022-08-19T09:49:14;69366.94;;;19.75;100.00
36354;BME280;22383;51.114;13.666;2022-08-19T09:51:44;69371.31;;;19.77;100.00
36354;BME280;22383;51.114;13.666;2022-08-19T09:54:17;69368.47;;;19.74;100.00
36354;BME280;22383;51.114;13.666;2022-08-19T09:56:51;69353.84;;;19.80;100.00
36354;BME280;22383;51.114;13.666;2022-08-19T09:59:18;69380.63;;;19.88;100.00
36354;BME280;22383;51.114;13.666;2022-08-19T10:01:45;69395.88;;;19.99;100.00
36354;BME280;22383;51.114;13.666;2022-08-19T10:04:13;69414.69;;;20.16;100.00
36354;BME280;22383;51.114;13.666;2022-08-19T10:06:48;69387.50;;;20.11;100.00
36354;BME280;22383;51.114;13.666;2022-08-19T10:09:19;69397.78;;;20.20;100.00
36354;BME280;22383;51.114;13.666;2022-08-19T10:11:59;69428.09;;;20.23;100.00
36354;BME280;22383;51.114;13.666;2022-08-19T10:14:28;69398.91;;;20.21;100.00
36354;BME280;22383;51.114;13.666;2022-08-19T10:16:55;69426.53;;;20.24;100.00
36354;BME280;22383;51.114;13.666;2022-08-19T10:19:25;69422.72;;;20.23;100.00
36354;BME280;22383;51.114;13.666;2022-08-19T10:21:53;69418.13;;;20.19;100.00
36354;BME280;22383;51.114;13.666;2022-08-19T10:24:21;69417.38;;;20.16;100.00
36354;BME280;22383;51.114;13.666;2022-08-19T10:26:51;69406.56;;;20.06;100.00
36354;BME280;22383;51.114;13.666;2022-08-19T10:29:26;69390.38;;;20.13;100.00
36354;BME280;22383;51.114;13.666;2022-08-19T10:31:59;69442.88;;;20.61;100.00
36354;BME280;22383;51.114;13.666;2022-08-19T10:34:29;69485.16;;;20.99;100.00
36354;BME280;22383;51.114;13.666;2022-08-19T10:36:57;69528.38;;;21.18;100.00
36354;BME280;22383;51.114;13.666;2022-08-19T10:39:31;69514.28;;;21.25;100.00
36354;BME280;22383;51.114;13.666;2022-08-19T10:42:09;69528.81;;;21.16;100.00
36354;BME280;22383;51.114;13.666;2022-08-19T10:44:40;69525.94;;;21.13;100.00
36354;BME280;22383;51.114;13.666;2022-08-19T10:47:07;69516.22;;;21.05;100.00
36354;BME280;22383;51.114;13.666;2022-08-19T10:49:51;69478.31;;;20.92;100.00
36354;BME280;22383;51.114;13.666;2022-08-19T10:52:41;69480.97;;;20.75;100.00
36354;BME280;22383;51.114;13.666;2022-08-19T10:55:20;69472.81;;;20.66;100.00
36354;BME280;22383;51.114;13.666;2022-08-19T10:58:09;69437.53;;;20.36;100.00
36354;BME280;22383;51.114;13.666;2022-08-19T11:00:37;69427.28;;;20.27;100.00
36354;BME280;22383;51.114;13.666;2022-08-19T11:03:04;69428.81;;;20.26;100.00
36354;BME280;22383;51.114;13.666;2022-08-19T11:05:31;69444.78;;;20.40;100.00
36354;BME280;22383;51.114;13.666;2022-08-19T11:08:06;69463.25;;;20.59;100.00
36354;BME280;22383;51.114;13.666;2022-08-19T11:10:50;69497.53;;;20.90;100.00
36354;BME280;22383;51.114;13.666;2022-08-19T11:13:17;69537.69;;;21.29;100.00
36354;BME280;22383;51.114;13.666;2022-08-19T11:15:44;69606.53;;;21.86;100.00
36354;BME280;22383;51.114;13.666;2022-08-19T11:18:14;69636.81;;;22.13;100.00
36354;BME280;22383;51.114;13.666;2022-08-19T11:20:41;69622.84;;;22.22;100.00
36354;BME280;22383;51.114;13.666;2022-08-19T11:23:08;69614.53;;;21.93;100.00
36354;BME280;22383;51.114;13.666;2022-08-19T11:25:37;69557.72;;;21.64;100.00
36354;BME280;22383;51.114;13.666;2022-08-19T11:28:04;69560.97;;;21.47;100.00
36354;BME280;22383;51.114;13.666;2022-08-19T11:30:31;69543.22;;;21.31;100.00
36354;BME280;22383;51.114;13.666;2022-08-19T11:32:59;69528.00;;;21.37;100.00
36354;BME280;22383;51.114;13.666;2022-08-19T11:35:27;69546.50;;;21.32;100.00
36354;BME280;22383;51.114;13.666;2022-08-19T11:37:54;69525.13;;;21.34;100.00
36354;BME280;22383;51.114;13.666;2022-08-19T11:40:24;69550.66;;;21.38;100.00
36354;BME280;22383;51.114;13.666;2022-08-19T11:42:52;69534.81;;;21.26;100.00
36354;BME280;22383;51.114;13.666;2022-08-19T11:45:23;69502.50;;;20.92;100.00
36354;BME280;22383;51.114;13.666;2022-08-19T11:47:51;69474.69;;;20.70;100.00
36354;BME280;22383;51.114;13.666;2022-08-19T11:50:18;69468.81;;;20.62;100.00
36354;BME280;22383;51.114;13.666;2022-08-19T11:52:46;69458.50;;;20.53;100.00
36354;BME280;22383;51.114;13.666;2022-08-19T11:55:13;69456.97;;;20.54;100.00
36354;BME280;22383;51.114;13.666;2022-08-19T11:57:40;69434.91;;;20.53;100.00
36354;BME280;22383;51.114;13.666;2022-08-19T12:00:10;69426.91;;;20.46;100.00
36354;BME280;22383;51.114;13.666;2022-08-19T12:02:39;69436.41;;;20.35;100.00
36354;BME280;22383;51.114;13.666;2022-08-19T12:05:06;69434.69;;;20.34;100.00
36354;BME280;22383;51.114;13.666;2022-08-19T12:07:39;69428.81;;;20.26;100.00
36354;BME280;22383;51.114;13.666;2022-08-19T12:10:06;69424.25;;;20.22;100.00
36354;BME280;22383;51.114;13.666;2022-08-19T12:12:34;69426.72;;;20.27;100.00
36354;BME280;22383;51.114;13.666;2022-08-19T12:15:01;69436.97;;;20.36;100.00
36354;BME280;22383;51.114;13.666;2022-08-19T12:17:28;69453.38;;;20.48;100.00
36354;BME280;22383;51.114;13.666;2022-08-19T12:19:57;69463.09;;;20.57;100.00
36354;BME280;22383;51.114;13.666;2022-08-19T12:22:24;69431.47;;;20.50;100.00
36354;BME280;22383;51.114;13.666;2022-08-19T12:24:51;69456.97;;;20.54;100.00
36354;BME280;22383;51.114;13.666;2022-08-19T12:27:20;69447.66;;;20.43;100.00
36354;BME280;22383;51.114;13.666;2022-08-19T12:30:08;69411.50;;;20.32;100.00
36354;BME280;22383;51.114;13.666;2022-08-19T12:32:35;69407.50;;;20.29;100.00
36354;BME280;22383;51.114;13.666;2022-08-19T12:37:00;69412.06;;;20.33;100.00
36354;BME280;22383;51.114;13.666;2022-08-19T12:39:27;69439.09;;;20.35;100.00
36354;BME280;22383;51.114;13.666;2022-08-19T12:41:55;69446.69;;;20.45;100.00
36354;BME280;22383;51.114;13.666;2022-08-19T12:44:22;69467.66;;;20.61;100.00
36354;BME280;22383;51.114;13.666;2022-08-19T12:46:58;69473.38;;;20.66;100.00
36354;BME280;22383;51.114;13.666;2022-08-19T12:49:30;69473.38;;;20.66;100.00
36354;BME280;22383;51.114;13.666;2022-08-19T12:52:18;69444.03;;;20.62;100.00
36354;BME280;22383;51.114;13.666;2022-08-19T12:54:51;69460.22;;;20.54;100.00
36354;BME280;22383;51.114;13.666;2022-08-19T12:57:22;69463.09;;;20.57;100.00
36354;BME280;22383;51.114;13.666;2022-08-19T12:59:59;69464.22;;;20.58;100.00
36354;BME280;22383;51.114;13.666;2022-08-19T13:02:26;69465.53;;;20.62;100.00
36354;BME280;22383;51.114;13.666;2022-08-19T13:04:53;69451.66;;;20.47;100.00
36354;BME280;22383;51.114;13.666;2022-08-19T13:07:21;69430.91;;;20.50;100.00